Time;durP1;ratioP1;P1;durP2;ratioP2;P2;SDS_P1;SDS_P2;PMS_P1;PMS_P2;Temp;Humidity;BMP_temperature;BMP_pressure;BME280_temperature;BME280_humidity;BME280_pressure;Samples;Min_cycle;Max_cycle;Signal;HPM_P1;HPM_P2
2022/02/12 00:01:13;;;;;;;1.70;1.60;;;0.50;98.20;;;;;;4976871;28;20484;-72
2022/02/12 00:03:42;;;;;;;2.30;2.10;;;0.40;98.20;;;;;;4980995;28;20464;-72
2022/02/12 00:06:09;;;;;;;1.90;1.80;;;0.40;98.20;;;;;;4976551;28;20483;-72
2022/02/12 00:08:36;;;;;;;1.70;1.60;;;0.40;98.20;;;;;;4966856;28;20485;-71
2022/02/12 00:11:03;;;;;;;1.90;1.80;;;0.30;98.20;;;;;;4973396;28;20586;-72
2022/02/12 00:13:30;;;;;;;1.90;1.80;;;0.30;98.20;;;;;;4990084;28;20465;-72
2022/02/12 00:15:57;;;;;;;1.70;1.60;;;0.30;98.20;;;;;;4974279;28;20501;-72
2022/02/12 00:18:26;;;;;;;1.80;1.70;;;0.30;98.20;;;;;;4977815;28;20491;-72
2022/02/12 00:20:53;;;;;;;1.90;1.80;;;0.30;98.20;;;;;;4974260;28;20498;-72
2022/02/12 00:23:20;;;;;;;2.07;1.87;;;0.30;98.20;;;;;;4996282;28;20501;-72
2022/02/12 00:25:47;;;;;;;4.10;3.80;;;0.30;98.20;;;;;;4979488;28;20484;-72
2022/02/12 00:28:14;;;;;;;1.70;1.60;;;0.30;98.20;;;;;;4994812;28;20496;-72
2022/02/12 00:30:41;;;;;;;1.70;1.60;;;0.30;98.20;;;;;;4983547;28;20889;-72
2022/02/12 00:33:08;;;;;;;2.00;1.90;;;0.30;98.20;;;;;;4989826;28;20541;-72
2022/02/12 00:35:37;;;;;;;1.97;1.87;;;0.30;98.20;;;;;;4982761;28;21071;-72
2022/02/12 00:38:04;;;;;;;1.80;1.70;;;0.30;98.20;;;;;;4982536;28;20550;-72
2022/02/12 00:40:31;;;;;;;1.80;1.70;;;0.30;98.20;;;;;;4983753;28;20494;-72
2022/02/12 00:42:58;;;;;;;1.70;1.60;;;0.30;98.20;;;;;;4989764;28;20495;-72
2022/02/12 00:45:25;;;;;;;1.87;1.77;;;0.30;98.20;;;;;;4988548;28;20627;-72
2022/02/12 00:47:52;;;;;;;1.80;1.70;;;0.40;98.20;;;;;;4986642;28;20588;-72
2022/02/12 00:50:18;;;;;;;1.83;1.73;;;0.40;98.20;;;;;;4986618;28;20460;-72
2022/02/12 00:52:47;;;;;;;1.70;1.60;;;0.40;98.20;;;;;;4992669;28;20623;-75
2022/02/12 00:55:14;;;;;;;1.70;1.60;;;0.50;98.20;;;;;;4989625;28;20531;-75
2022/02/12 00:57:41;;;;;;;1.70;1.60;;;0.50;98.20;;;;;;4971303;28;20571;-75
2022/02/12 01:00:08;;;;;;;1.80;1.70;;;0.50;98.20;;;;;;5003565;23;20592;-73
2022/02/12 01:02:36;;;;;;;1.90;1.80;;;0.60;98.20;;;;;;4999118;28;20479;-72
2022/02/12 01:05:03;;;;;;;1.93;1.83;;;0.60;98.20;;;;;;4994162;28;20507;-72
2022/02/12 01:07:30;;;;;;;1.70;1.60;;;0.60;98.20;;;;;;5002233;28;20483;-72
2022/02/12 01:09:58;;;;;;;1.73;1.63;;;0.60;98.20;;;;;;4987472;28;20485;-72
2022/02/12 01:12:25;;;;;;;1.90;1.80;;;0.60;98.20;;;;;;4988263;28;20487;-72
2022/02/12 01:14:52;;;;;;;1.70;1.60;;;0.60;98.20;;;;;;4986638;28;20472;-72
2022/02/12 01:17:18;;;;;;;1.80;1.70;;;0.60;98.20;;;;;;4992475;28;20490;-73
2022/02/12 01:19:48;;;;;;;1.80;1.70;;;0.60;98.20;;;;;;4987855;28;20489;-72
2022/02/12 01:22:16;;;;;;;1.70;1.60;;;0.60;98.20;;;;;;4995085;28;20781;-72
2022/02/12 01:24:43;;;;;;;2.10;1.90;;;0.60;98.20;;;;;;4991304;28;20473;-72
2022/02/12 01:27:12;;;;;;;1.90;1.80;;;0.60;98.20;;;;;;4990913;28;20482;-72
2022/02/12 01:29:38;;;;;;;1.80;1.70;;;0.50;98.20;;;;;;5010475;28;20492;-72
2022/02/12 01:32:05;;;;;;;2.00;1.90;;;0.50;98.20;;;;;;4977824;28;20481;-71
2022/02/12 01:34:37;;;;;;;1.80;1.70;;;0.50;98.20;;;;;;4977414;28;20947;-72
2022/02/12 01:37:04;;;;;;;1.80;1.70;;;0.50;98.20;;;;;;4984078;28;20487;-72
2022/02/12 01:39:32;;;;;;;1.80;1.70;;;0.40;98.20;;;;;;4985295;28;20519;-72
2022/02/12 01:41:59;;;;;;;1.70;1.60;;;0.40;98.20;;;;;;4980683;28;20503;-72
2022/02/12 01:44:33;;;;;;;2.00;1.90;;;0.30;98.20;;;;;;4984931;28;20469;-72
2022/02/12 01:47:00;;;;;;;1.80;1.70;;;0.30;98.20;;;;;;4985094;28;20491;-72
2022/02/12 01:49:28;;;;;;;1.80;1.70;;;0.20;98.20;;;;;;4977652;28;20501;-72
2022/02/12 01:51:55;;;;;;;1.80;1.70;;;0.20;98.20;;;;;;4985473;28;20479;-71
2022/02/12 01:54:24;;;;;;;1.90;1.80;;;0.20;98.20;;;;;;4984710;28;20481;-71
2022/02/12 01:56:51;;;;;;;2.00;1.90;;;0.10;98.20;;;;;;4983406;28;21096;-71
2022/02/12 01:59:20;;;;;;;1.87;1.77;;;0.10;98.20;;;;;;4994293;28;20793;-71
2022/02/12 02:01:49;;;;;;;1.90;1.80;;;0.10;98.20;;;;;;4994775;28;20485;-71
2022/02/12 02:04:23;;;;;;;1.90;1.80;;;0.10;98.20;;;;;;4978729;28;20501;-71
2022/02/12 02:06:50;;;;;;;1.93;1.83;;;0.00;98.20;;;;;;4980483;28;20893;-72
2022/02/12 02:09:18;;;;;;;1.83;1.73;;;0.00;98.20;;;;;;5007084;28;20477;-71
2022/02/12 02:11:45;;;;;;;1.70;1.60;;;0.00;98.20;;;;;;4990249;28;20569;-71
2022/02/12 02:14:12;;;;;;;1.80;1.70;;;0.00;98.20;;;;;;5000416;28;20478;-72
2022/02/12 02:16:40;;;;;;;2.10;1.90;;;0.00;98.20;;;;;;4974072;28;20476;-71
2022/02/12 02:19:09;;;;;;;1.80;1.70;;;0.00;98.20;;;;;;5001376;28;20509;-71
2022/02/12 02:21:37;;;;;;;1.80;1.70;;;0.00;98.20;;;;;;4972860;28;20474;-71
2022/02/12 02:24:07;;;;;;;1.80;1.70;;;0.00;98.20;;;;;;4971817;28;20493;-72
2022/02/12 02:26:35;;;;;;;1.80;1.70;;;0.00;98.20;;;;;;4978490;28;20483;-71
2022/02/12 02:29:01;;;;;;;1.83;1.73;;;0.00;98.20;;;;;;5009141;28;20575;-71
2022/02/12 02:31:28;;;;;;;1.80;1.70;;;0.00;98.20;;;;;;4979638;28;21019;-71
2022/02/12 02:33:55;;;;;;;1.80;1.70;;;0.00;98.20;;;;;;4991073;28;21120;-71
2022/02/12 02:36:22;;;;;;;1.73;1.63;;;0.00;98.20;;;;;;4974050;28;20480;-72
2022/02/12 02:38:49;;;;;;;1.80;1.70;;;0.00;98.20;;;;;;4993442;28;20493;-71
2022/02/12 02:41:17;;;;;;;1.80;1.70;;;0.00;98.20;;;;;;4971087;28;20479;-72
2022/02/12 02:43:44;;;;;;;1.80;1.70;;;0.00;98.20;;;;;;5002077;28;20832;-72
2022/02/12 02:46:11;;;;;;;1.90;1.80;;;0.00;98.20;;;;;;4980535;28;20480;-71
2022/02/12 02:48:37;;;;;;;2.10;1.90;;;0.00;98.20;;;;;;5015415;28;20484;-71
2022/02/12 02:56:34;;;;;;;1.90;1.80;;;0.00;98.20;;;;;;4981221;28;20846;-71
2022/02/12 02:59:01;;;;;;;1.90;1.80;;;0.00;98.20;;;;;;5021993;28;20705;-71
2022/02/12 03:01:29;;;;;;;1.93;1.83;;;0.00;98.20;;;;;;4981356;28;20492;-71
2022/02/12 03:03:56;;;;;;;1.80;1.70;;;0.00;98.20;;;;;;5009401;28;20907;-71
2022/02/12 03:06:26;;;;;;;1.80;1.70;;;0.00;98.20;;;;;;4983435;28;20860;-71
2022/02/12 03:08:52;;;;;;;1.70;1.60;;;0.00;98.20;;;;;;4993125;28;20862;-71
2022/02/12 03:11:19;;;;;;;2.17;1.97;;;0.00;98.20;;;;;;4968194;28;20482;-71
2022/02/12 03:13:49;;;;;;;1.70;1.60;;;0.00;98.20;;;;;;5016469;28;20484;-71
2022/02/12 03:16:16;;;;;;;1.90;1.80;;;0.00;98.20;;;;;;4977752;28;20484;-71
2022/02/12 03:18:45;;;;;;;1.70;1.60;;;0.00;98.20;;;;;;4982117;28;20494;-71
2022/02/12 03:21:12;;;;;;;1.90;1.80;;;0.00;98.20;;;;;;4968503;28;20490;-72
2022/02/12 03:23:39;;;;;;;1.80;1.70;;;0.00;98.20;;;;;;4998064;28;20458;-71
2022/02/12 03:26:07;;;;;;;2.07;1.90;;;0.00;98.20;;;;;;4976277;28;20462;-71
2022/02/12 03:28:34;;;;;;;1.80;1.70;;;0.10;98.20;;;;;;4989153;28;20478;-71
2022/02/12 03:31:02;;;;;;;1.80;1.70;;;0.00;98.20;;;;;;4980117;28;20461;-71
2022/02/12 03:33:29;;;;;;;1.93;1.83;;;0.00;98.20;;;;;;5000299;28;20501;-72
2022/02/12 03:35:55;;;;;;;1.80;1.70;;;0.00;98.20;;;;;;4962576;28;20995;-71
2022/02/12 03:38:26;;;;;;;1.87;1.77;;;0.00;98.20;;;;;;5003643;28;20741;-72
2022/02/12 03:40:56;;;;;;;1.90;1.80;;;0.00;98.20;;;;;;4982722;28;20476;-71
2022/02/12 03:43:23;;;;;;;1.80;1.70;;;0.00;98.20;;;;;;5005673;28;20462;-71
2022/02/12 03:45:50;;;;;;;1.80;1.70;;;0.00;98.20;;;;;;4962624;28;21104;-71
2022/02/12 03:48:18;;;;;;;2.03;1.93;;;0.00;98.20;;;;;;5009528;28;20488;-72
2022/02/12 03:50:45;;;;;;;1.90;1.80;;;0.00;98.20;;;;;;4971319;28;20474;-72
2022/02/12 03:53:12;;;;;;;2.00;1.90;;;0.00;98.20;;;;;;4992674;28;21009;-71
2022/02/12 03:55:40;;;;;;;1.70;1.60;;;0.00;98.20;;;;;;4973690;28;20464;-71
2022/02/12 03:58:09;;;;;;;2.10;1.90;;;0.00;98.20;;;;;;4993303;28;20461;-71
2022/02/12 04:00:36;;;;;;;1.80;1.70;;;0.00;98.20;;;;;;4984468;28;20580;-72
2022/02/12 04:03:03;;;;;;;1.87;1.77;;;0.00;98.20;;;;;;4991081;28;20484;-71
2022/02/12 04:05:32;;;;;;;1.70;1.60;;;0.00;98.20;;;;;;4976270;28;20475;-72
2022/02/12 04:07:59;;;;;;;2.40;2.20;;;0.00;98.20;;;;;;4999128;28;20488;-71
2022/02/12 04:10:27;;;;;;;1.80;1.70;;;0.00;98.20;;;;;;4973942;28;20588;-72
2022/02/12 04:12:54;;;;;;;1.90;1.80;;;0.00;98.20;;;;;;4990083;28;20489;-72
2022/02/12 04:15:21;;;;;;;1.70;1.60;;;0.00;98.20;;;;;;4971669;28;20461;-72
2022/02/12 04:17:49;;;;;;;1.97;1.87;;;-0.10;98.20;;;;;;4994348;28;20484;-72
2022/02/12 04:20:17;;;;;;;1.70;1.60;;;-0.10;98.20;;;;;;4969164;28;20671;-72
2022/02/12 04:22:46;;;;;;;1.87;1.77;;;-0.10;98.20;;;;;;4980791;28;20483;-71
2022/02/12 04:25:15;;;;;;;1.80;1.70;;;-0.10;98.20;;;;;;4969147;28;20465;-71
2022/02/12 04:27:44;;;;;;;1.93;1.83;;;-0.10;98.20;;;;;;5006813;28;20482;-71
2022/02/12 04:30:12;;;;;;;1.93;1.83;;;-0.10;98.20;;;;;;4991368;28;20489;-71
2022/02/12 04:32:39;;;;;;;1.97;1.87;;;-0.10;98.20;;;;;;4982854;28;21014;-72
2022/02/12 04:35:07;;;;;;;1.87;1.77;;;-0.10;98.20;;;;;;4970258;28;20465;-72
2022/02/12 04:37:34;;;;;;;1.67;1.50;;;-0.10;98.20;;;;;;4982399;28;20465;-71
2022/02/12 04:40:03;;;;;;;1.80;1.70;;;-0.10;98.20;;;;;;4984901;28;20994;-72
2022/02/12 04:42:30;;;;;;;1.80;1.70;;;-0.10;98.20;;;;;;4986895;28;20488;-72
2022/02/12 04:44:57;;;;;;;1.77;1.67;;;-0.10;98.20;;;;;;4973077;28;20502;-72
2022/02/12 04:47:24;;;;;;;1.70;1.60;;;-0.10;98.20;;;;;;4989525;28;20889;-71
2022/02/12 04:49:51;;;;;;;1.90;1.80;;;-0.10;98.20;;;;;;4988934;28;20489;-73
2022/02/12 04:52:20;;;;;;;1.80;1.70;;;-0.10;98.20;;;;;;4997439;28;20498;-73
2022/02/12 04:54:47;;;;;;;1.80;1.70;;;-0.10;98.20;;;;;;4987130;28;20509;-73
2022/02/12 04:57:16;;;;;;;1.80;1.70;;;-0.10;98.20;;;;;;4990984;28;20482;-73
2022/02/12 04:59:43;;;;;;;1.73;1.63;;;-0.10;98.20;;;;;;4997806;28;20499;-71
2022/02/12 05:02:09;;;;;;;1.80;1.70;;;-0.10;98.20;;;;;;4983022;28;20901;-71
2022/02/12 05:04:36;;;;;;;1.70;1.60;;;-0.10;98.20;;;;;;4978382;28;20469;-71
2022/02/12 05:07:03;;;;;;;1.73;1.63;;;-0.10;98.20;;;;;;4978023;28;20502;-71
2022/02/12 05:09:34;;;;;;;2.27;2.07;;;-0.10;98.20;;;;;;4980713;28;20493;-71
2022/02/12 05:12:02;;;;;;;1.80;1.70;;;-0.10;98.20;;;;;;4980106;28;20893;-71
2022/02/12 05:14:31;;;;;;;1.90;1.80;;;-0.10;98.20;;;;;;4979768;28;20501;-71
2022/02/12 05:16:58;;;;;;;1.80;1.70;;;-0.10;98.20;;;;;;4980965;28;20534;-71
2022/02/12 05:19:25;;;;;;;1.83;1.73;;;-0.10;98.20;;;;;;5000993;28;20479;-71
2022/02/12 05:21:52;;;;;;;1.80;1.70;;;-0.10;98.20;;;;;;4992187;28;20487;-71
2022/02/12 05:24:19;;;;;;;1.70;1.60;;;-0.10;98.20;;;;;;4988390;28;20484;-71
2022/02/12 05:26:46;;;;;;;1.83;1.73;;;-0.20;98.20;;;;;;4990495;28;20791;-71
2022/02/12 05:29:13;;;;;;;1.93;1.83;;;-0.20;98.20;;;;;;5013319;28;20853;-71
2022/02/12 05:31:41;;;;;;;1.70;1.60;;;-0.20;98.20;;;;;;4976353;28;20471;-71
2022/02/12 05:34:07;;;;;;;1.70;1.60;;;-0.20;98.20;;;;;;4993283;28;20504;-71
2022/02/12 05:36:34;;;;;;;1.83;1.73;;;-0.20;98.20;;;;;;4978254;28;20468;-72
2022/02/12 05:39:02;;;;;;;2.60;2.40;;;-0.20;98.20;;;;;;4971540;28;20493;-71
2022/02/12 05:41:29;;;;;;;1.83;1.73;;;-0.30;98.20;;;;;;4974008;28;20483;-73
2022/02/12 05:43:56;;;;;;;1.80;1.70;;;-0.30;98.20;;;;;;4992921;28;20644;-73
2022/02/12 05:46:23;;;;;;;1.80;1.70;;;-0.30;98.20;;;;;;4975585;28;20469;-73
2022/02/12 05:48:51;;;;;;;1.80;1.70;;;-0.30;98.20;;;;;;4972591;28;20500;-73
2022/02/12 05:51:20;;;;;;;1.70;1.60;;;-0.30;98.20;;;;;;4975254;28;20476;-72
2022/02/12 05:53:47;;;;;;;1.90;1.80;;;-0.30;98.20;;;;;;4972540;28;20548;-71
2022/02/12 05:56:15;;;;;;;1.97;1.87;;;-0.30;98.20;;;;;;4978943;28;20475;-71
2022/02/12 05:58:42;;;;;;;1.70;1.60;;;-0.30;98.20;;;;;;5025073;28;20491;-72
2022/02/12 06:01:08;;;;;;;1.80;1.70;;;-0.30;98.20;;;;;;4982616;28;20469;-71
2022/02/12 06:03:35;;;;;;;1.80;1.70;;;-0.30;98.20;;;;;;4990984;28;20543;-73
2022/02/12 06:06:03;;;;;;;1.90;1.80;;;-0.30;98.20;;;;;;4982349;28;20472;-73
2022/02/12 06:08:31;;;;;;;1.80;1.70;;;-0.30;98.20;;;;;;5021519;28;20468;-74
2022/02/12 06:10:58;;;;;;;1.80;1.70;;;-0.30;98.20;;;;;;4971305;28;20995;-74
2022/02/12 06:13:25;;;;;;;1.93;1.83;;;-0.30;98.20;;;;;;4993071;28;20901;-73
2022/02/12 06:15:52;;;;;;;1.90;1.80;;;-0.30;98.20;;;;;;4984203;28;20467;-73
2022/02/12 06:18:19;;;;;;;1.90;1.80;;;-0.30;98.20;;;;;;4999568;28;20779;-73
2022/02/12 06:20:45;;;;;;;1.80;1.70;;;-0.30;98.20;;;;;;4977700;28;20477;-73
2022/02/12 06:23:14;;;;;;;1.80;1.70;;;-0.30;98.20;;;;;;4998147;28;20485;-73
2022/02/12 06:25:40;;;;;;;1.80;1.70;;;-0.30;98.20;;;;;;4994020;28;20488;-72
2022/02/12 06:28:07;;;;;;;1.80;1.70;;;-0.30;98.20;;;;;;5009006;28;20483;-73
2022/02/12 06:30:34;;;;;;;1.90;1.80;;;-0.30;98.20;;;;;;4985285;28;20517;-73
2022/02/12 06:33:01;;;;;;;2.00;1.90;;;-0.30;98.20;;;;;;4997765;28;20480;-73
2022/02/12 06:35:28;;;;;;;2.00;1.90;;;-0.30;98.20;;;;;;4992440;28;20658;-73
2022/02/12 06:37:56;;;;;;;1.70;1.60;;;-0.30;98.20;;;;;;4996328;28;20488;-73
2022/02/12 06:40:24;;;;;;;1.80;1.70;;;-0.30;98.20;;;;;;4977027;28;20998;-73
2022/02/12 06:42:51;;;;;;;1.70;1.60;;;-0.30;98.20;;;;;;4996072;28;20487;-73
2022/02/12 06:45:18;;;;;;;1.70;1.60;;;-0.30;98.20;;;;;;4989571;28;20965;-73
2022/02/12 06:47:45;;;;;;;1.80;1.70;;;-0.30;98.20;;;;;;4995361;28;20619;-73
2022/02/12 06:50:12;;;;;;;1.90;1.80;;;-0.30;98.20;;;;;;4983303;28;20481;-73
2022/02/12 06:52:39;;;;;;;1.70;1.60;;;-0.30;98.20;;;;;;4994238;28;20988;-73
2022/02/12 06:55:07;;;;;;;1.80;1.70;;;-0.30;98.20;;;;;;4972852;28;20525;-73
2022/02/12 06:57:35;;;;;;;1.90;1.80;;;-0.30;98.20;;;;;;5007168;28;20478;-73
2022/02/12 07:00:03;;;;;;;1.90;1.80;;;-0.30;98.20;;;;;;5007295;23;20502;-76
2022/02/12 07:02:30;;;;;;;1.93;1.83;;;-0.30;98.20;;;;;;4981248;28;20484;-76
2022/02/12 07:04:59;;;;;;;2.10;1.90;;;-0.30;98.20;;;;;;4979450;28;20488;-75
2022/02/12 07:07:25;;;;;;;1.80;1.70;;;-0.30;98.20;;;;;;4988218;28;20486;-77
2022/02/12 07:09:52;;;;;;;1.90;1.80;;;-0.30;98.20;;;;;;4969595;28;20603;-75
2022/02/12 07:12:19;;;;;;;2.17;1.97;;;-0.30;98.20;;;;;;4969173;28;20535;-75
2022/02/12 07:14:48;;;;;;;1.90;1.80;;;-0.30;98.20;;;;;;4979167;28;20494;-79
2022/02/12 07:17:14;;;;;;;1.80;1.70;;;-0.20;98.20;;;;;;4962059;28;20497;-77
2022/02/12 07:19:41;;;;;;;2.17;1.97;;;-0.20;98.20;;;;;;4972796;28;20488;-77
2022/02/12 07:22:08;;;;;;;1.83;1.73;;;-0.20;98.20;;;;;;4957639;28;20497;-82
2022/02/12 07:24:35;;;;;;;1.80;1.70;;;-0.20;98.20;;;;;;4971112;28;20466;-80
2022/02/12 07:27:02;;;;;;;1.70;1.60;;;-0.10;98.20;;;;;;4974850;28;20493;-77
2022/02/12 07:29:28;;;;;;;1.70;1.60;;;-0.10;98.20;;;;;;4988143;28;20547;-77
2022/02/12 07:31:57;;;;;;;1.93;1.83;;;-0.10;98.20;;;;;;4968092;28;20881;-75
2022/02/12 07:34:24;;;;;;;1.73;1.63;;;0.00;98.20;;;;;;4969849;28;21018;-78
2022/02/12 07:36:50;;;;;;;1.70;1.60;;;0.10;98.20;;;;;;4969571;28;20484;-78
2022/02/12 07:39:17;;;;;;;1.90;1.80;;;0.10;98.20;;;;;;4975077;28;20465;-77
2022/02/12 07:41:44;;;;;;;1.90;1.80;;;0.20;98.20;;;;;;4964337;28;20480;-77
2022/02/12 07:44:11;;;;;;;1.83;1.73;;;0.20;98.20;;;;;;4974652;28;20454;-75
2022/02/12 07:46:38;;;;;;;1.77;1.67;;;0.30;98.20;;;;;;4965759;28;21017;-79
2022/02/12 07:49:06;;;;;;;1.70;1.60;;;0.40;98.20;;;;;;4973646;28;20470;-75
2022/02/12 07:51:33;;;;;;;1.80;1.70;;;0.50;98.20;;;;;;4961622;28;20497;-75
2022/02/12 07:54:00;;;;;;;1.70;1.60;;;0.50;98.20;;;;;;4973555;28;20490;-76
2022/02/12 07:56:27;;;;;;;1.80;1.70;;;0.60;98.20;;;;;;4957761;28;20488;-77
2022/02/12 07:58:54;;;;;;;1.80;1.70;;;0.70;98.20;;;;;;4984670;28;20462;-75
2022/02/12 08:01:21;;;;;;;1.87;1.77;;;0.70;98.20;;;;;;4970963;28;21019;-77
2022/02/12 08:03:48;;;;;;;1.73;1.60;;;0.80;98.20;;;;;;4968537;28;20469;-75
2022/02/12 08:09:08;;;;;;;1.70;1.50;;;0.90;98.20;;;;;;4950593;28;20521;-76
2022/02/12 08:11:38;;;;;;;1.70;1.60;;;0.90;98.20;;;;;;4962532;28;21461;-79
2022/02/12 08:14:06;;;;;;;1.70;1.60;;;0.90;98.20;;;;;;4962053;28;20492;-79
2022/02/12 08:16:33;;;;;;;1.77;1.67;;;0.90;98.20;;;;;;4962303;28;20482;-77
2022/02/12 08:18:59;;;;;;;1.80;1.70;;;0.90;98.20;;;;;;4970318;28;20474;-80
2022/02/12 08:21:30;;;;;;;1.70;1.60;;;1.00;98.20;;;;;;4960607;28;20575;-77
2022/02/12 08:23:57;;;;;;;1.63;1.50;;;1.00;98.20;;;;;;4964968;28;20462;-76
2022/02/12 08:26:23;;;;;;;1.80;1.70;;;1.00;98.20;;;;;;4963154;28;20996;-76
2022/02/12 08:28:50;;;;;;;1.80;1.70;;;1.10;98.20;;;;;;4978532;28;20470;-75
2022/02/12 08:31:18;;;;;;;1.87;1.77;;;1.10;98.20;;;;;;4962086;28;20584;-76
2022/02/12 08:33:45;;;;;;;1.90;1.80;;;1.20;98.20;;;;;;4974844;28;20490;-75
2022/02/12 08:36:12;;;;;;;1.70;1.60;;;1.20;98.20;;;;;;4963293;28;20489;-75
2022/02/12 08:38:40;;;;;;;1.70;1.50;;;1.30;98.20;;;;;;4980418;28;20470;-78
2022/02/12 08:41:08;;;;;;;1.70;1.43;;;1.30;98.20;;;;;;4959904;28;20509;-79
2022/02/12 08:43:35;;;;;;;1.70;1.50;;;1.40;98.20;;;;;;4976034;28;20517;-78
2022/02/12 08:46:02;;;;;;;1.70;1.60;;;1.50;98.20;;;;;;4958184;28;20480;-76
2022/02/12 08:48:31;;;;;;;1.70;1.57;;;1.50;98.20;;;;;;4968080;28;20552;-75
2022/02/12 08:50:58;;;;;;;1.67;1.47;;;1.60;98.20;;;;;;4954977;28;20482;-74
2022/02/12 08:53:25;;;;;;;1.70;1.60;;;1.70;98.20;;;;;;4978086;28;20461;-74
2022/02/12 08:55:53;;;;;;;1.70;1.50;;;1.80;98.20;;;;;;4959537;28;20517;-78
2022/02/12 08:58:22;;;;;;;1.70;1.60;;;1.80;98.20;;;;;;4970091;28;20480;-74
2022/02/12 09:00:49;;;;;;;1.63;1.50;;;1.90;98.20;;;;;;4956943;28;20895;-75
2022/02/12 09:03:17;;;;;;;1.70;1.40;;;2.00;98.20;;;;;;4959256;28;20465;-74
2022/02/12 09:05:44;;;;;;;1.80;1.70;;;2.10;98.20;;;;;;4969190;28;20843;-73
2022/02/12 09:08:12;;;;;;;1.70;1.50;;;2.20;98.20;;;;;;4956950;28;20478;-74
2022/02/12 09:10:39;;;;;;;1.63;1.40;;;2.20;98.20;;;;;;4966695;28;20893;-71
2022/02/12 09:13:07;;;;;;;1.70;1.60;;;2.30;98.20;;;;;;4960836;28;20488;-74
2022/02/12 09:15:34;;;;;;;1.70;1.50;;;2.40;98.20;;;;;;4967328;28;20492;-75
2022/02/12 09:18:01;;;;;;;1.70;1.40;;;2.50;98.20;;;;;;4971076;28;20492;-74
2022/02/12 09:20:29;;;;;;;1.70;1.50;;;2.60;98.20;;;;;;4969187;28;20489;-77
2022/02/12 09:22:56;;;;;;;1.70;1.57;;;2.70;98.20;;;;;;4974030;28;20494;-74
2022/02/12 09:25:23;;;;;;;1.70;1.47;;;2.90;98.20;;;;;;4969627;28;20578;-77
2022/02/12 09:27:50;;;;;;;1.60;1.30;;;3.00;98.20;;;;;;4975284;28;20504;-73
2022/02/12 09:30:19;;;;;;;1.70;1.40;;;3.20;98.20;;;;;;4972297;28;20493;-77
2022/02/12 09:32:46;;;;;;;1.70;1.60;;;3.40;98.20;;;;;;4975904;28;20495;-72
2022/02/12 09:35:15;;;;;;;1.70;1.50;;;3.50;98.20;;;;;;4965869;28;20515;-72
2022/02/12 09:37:45;;;;;;;1.70;1.50;;;3.60;98.20;;;;;;4952009;28;20560;-77
2022/02/12 09:40:12;;;;;;;1.70;1.50;;;3.70;98.20;;;;;;4965104;28;21025;-76
2022/02/12 09:42:41;;;;;;;1.70;1.47;;;3.80;98.20;;;;;;4968600;28;20485;-78
2022/02/12 09:45:10;;;;;;;1.70;1.40;;;3.90;98.20;;;;;;4964421;28;20494;-75
2022/02/12 09:47:56;;;;;;;1.70;1.50;;;3.90;98.20;;;;;;4964796;28;20485;-77
2022/02/12 09:50:24;;;;;;;1.63;1.40;;;4.10;98.20;;;;;;4978500;28;20489;-77
2022/02/12 09:52:55;;;;;;;1.60;1.30;;;4.20;98.20;;;;;;4971579;28;20723;-75
2022/02/12 09:55:23;;;;;;;1.63;1.30;;;4.40;98.20;;;;;;4967605;28;20843;-75
2022/02/12 09:57:53;;;;;;;1.70;1.37;;;4.60;98.20;;;;;;4966881;28;20939;-76
2022/02/12 10:00:21;;;;;;;1.70;1.40;;;4.80;98.20;;;;;;4974393;28;20493;-78
2022/02/12 10:02:54;;;;;;;1.63;1.40;;;4.80;98.20;;;;;;4971401;28;21028;-76
2022/02/12 10:05:25;;;;;;;1.60;1.30;;;4.90;98.20;;;;;;4967288;28;20468;-77
2022/02/12 10:08:12;;;;;;;3.60;3.40;;;5.10;98.20;;;;;;4967301;28;20521;-76
2022/02/12 10:10:40;;;;;;;1.63;1.30;;;5.20;98.20;;;;;;4966027;28;20481;-75
2022/02/12 10:13:13;;;;;;;1.70;1.50;;;5.30;98.20;;;;;;4968491;28;20898;-74
2022/02/12 10:15:40;;;;;;;1.67;1.40;;;5.30;98.20;;;;;;4964913;28;20574;-73
2022/02/12 10:18:09;;;;;;;1.70;1.40;;;5.40;98.20;;;;;;4963755;28;20478;-79
2022/02/12 10:20:39;;;;;;;2.53;2.33;;;5.50;98.20;;;;;;4967051;28;20532;-78
2022/02/12 10:23:13;;;;;;;1.70;1.43;;;5.60;97.70;;;;;;4948030;28;20511;-76
2022/02/12 10:25:45;;;;;;;1.70;1.50;;;5.50;97.00;;;;;;4969520;28;20457;-78
2022/02/12 10:28:14;;;;;;;1.67;1.40;;;5.60;98.10;;;;;;4961317;28;20655;-77
2022/02/12 10:30:44;;;;;;;2.20;2.00;;;5.60;98.20;;;;;;4965139;28;20492;-76
2022/02/12 10:33:14;;;;;;;1.60;1.30;;;5.70;98.20;;;;;;4971000;28;20485;-74
2022/02/12 10:35:43;;;;;;;2.60;2.40;;;5.80;97.20;;;;;;4964209;28;20492;-75
2022/02/12 10:38:15;;;;;;;1.60;1.20;;;6.00;97.10;;;;;;4945333;28;20478;-76
2022/02/12 10:41:04;;;;;;;1.63;1.20;;;6.20;96.50;;;;;;4966285;28;21045;-75
2022/02/12 10:43:32;;;;;;;1.70;1.40;;;6.30;96.00;;;;;;4955921;28;20517;-76
2022/02/12 10:46:00;;;;;;;1.70;1.30;;;6.30;94.60;;;;;;4957408;28;20897;-75
2022/02/12 10:48:30;;;;;;;1.60;1.20;;;6.40;94.80;;;;;;4980034;28;20608;-76
2022/02/12 10:51:00;;;;;;;1.60;1.27;;;6.30;93.90;;;;;;4963187;28;20568;-78
2022/02/12 10:53:28;;;;;;;1.70;1.57;;;6.40;94.60;;;;;;4964432;28;20503;-76
2022/02/12 10:56:00;;;;;;;1.60;1.40;;;6.40;93.50;;;;;;4955728;28;20512;-77
2022/02/12 10:58:28;;;;;;;1.60;1.30;;;6.50;93.90;;;;;;4976592;28;20556;-74
2022/02/12 11:00:56;;;;;;;1.70;1.40;;;6.50;93.30;;;;;;4958661;28;20501;-76
2022/02/12 11:03:25;;;;;;;3.40;3.10;;;6.50;93.00;;;;;;4980528;28;20462;-76
2022/02/12 11:05:55;;;;;;;1.60;1.30;;;6.50;92.50;;;;;;4956960;28;20465;-75
2022/02/12 11:08:24;;;;;;;6.33;5.03;;;6.50;93.00;;;;;;4977552;28;20466;-76
2022/02/12 11:10:53;;;;;;;2.07;1.87;;;6.60;93.40;;;;;;4955722;28;20490;-77
2022/02/12 11:13:21;;;;;;;1.60;1.20;;;6.80;93.10;;;;;;4969787;28;20965;-76
2022/02/12 11:15:52;;;;;;;1.67;1.30;;;7.00;92.80;;;;;;4957253;28;20517;-75
2022/02/12 11:18:20;;;;;;;1.60;1.20;;;7.10;92.30;;;;;;4971258;28;20519;-76
2022/02/12 11:20:49;;;;;;;1.60;1.30;;;7.30;91.30;;;;;;4967615;28;20573;-77
2022/02/12 11:23:28;;;;;;;1.60;1.30;;;7.40;90.20;;;;;;4967905;28;20466;-79
2022/02/12 11:26:16;;;;;;;1.60;1.30;;;7.50;90.20;;;;;;4957272;28;20958;-77
2022/02/12 11:28:45;;;;;;;1.70;1.30;;;7.40;88.30;;;;;;4976285;28;20468;-76
2022/02/12 11:31:21;;;;;;;1.70;1.40;;;7.60;90.20;;;;;;4958677;28;20596;-79
2022/02/12 11:34:09;;;;;;;1.60;1.30;;;7.60;89.30;;;;;;4973030;28;20469;-75
2022/02/12 11:36:37;;;;;;;1.60;1.30;;;7.70;87.60;;;;;;4958876;28;20633;-75
2022/02/12 11:39:13;;;;;;;1.60;1.40;;;7.80;88.50;;;;;;4969778;28;20625;-74
2022/02/12 11:41:42;;;;;;;1.60;1.30;;;7.90;87.40;;;;;;4955956;28;20482;-78
2022/02/12 11:44:10;;;;;;;1.60;1.37;;;8.00;87.00;;;;;;4971758;28;20477;-78
2022/02/12 11:47:02;;;;;;;1.60;1.33;;;8.00;86.90;;;;;;4955956;28;20485;-77
2022/02/12 11:49:30;;;;;;;1.60;1.30;;;8.00;87.10;;;;;;4968345;28;20469;-78
2022/02/12 11:52:00;;;;;;;1.60;1.30;;;8.20;87.00;;;;;;4963880;28;20544;-75
2022/02/12 11:54:56;;;;;;;1.87;1.67;;;8.20;85.70;;;;;;4964136;28;20470;-77
2022/02/12 11:57:42;;;;;;;1.60;1.23;;;8.30;86.50;;;;;;4967154;28;20466;-76
2022/02/12 12:00:37;;;;;;;1.60;1.10;;;8.40;85.70;;;;;;4967531;28;21174;-76
2022/02/12 12:03:11;;;;;;;1.60;1.40;;;8.60;85.50;;;;;;4967829;28;20489;-75
2022/02/12 12:05:38;;;;;;;1.60;1.27;;;8.60;84.00;;;;;;4965461;28;20461;-76
2022/02/12 12:08:15;;;;;;;1.60;1.30;;;8.50;83.00;;;;;;4963968;28;20593;-77
2022/02/12 12:11:12;;;;;;;1.60;1.20;;;8.50;83.10;;;;;;4964709;28;20549;-76
2022/02/12 12:13:40;;;;;;;1.60;1.20;;;8.40;83.90;;;;;;4952179;28;20481;-75
2022/02/12 12:16:33;;;;;;;1.60;1.10;;;8.40;83.90;;;;;;4959182;28;21009;-79
2022/02/12 12:19:02;;;;;;;1.60;1.20;;;8.30;82.90;;;;;;4973763;28;20468;-78
2022/02/12 12:21:31;;;;;;;1.60;1.40;;;8.40;84.40;;;;;;4956342;28;20521;-77
2022/02/12 12:24:01;;;;;;;1.60;1.20;;;8.60;84.20;;;;;;4972890;28;20565;-78
2022/02/12 12:26:46;;;;;;;1.60;1.30;;;8.80;82.60;;;;;;4958983;28;20489;-78
2022/02/12 12:32:04;;;;;;;1.60;1.37;;;8.80;80.00;;;;;;4960626;28;20613;-75
2022/02/12 12:34:32;;;;;;;1.60;1.40;;;8.90;80.80;;;;;;4964996;28;20473;-79
2022/02/12 12:36:59;;;;;;;1.60;1.10;;;9.00;80.20;;;;;;4962944;28;21094;-76
2022/02/12 12:39:37;;;;;;;1.60;1.20;;;9.00;79.70;;;;;;4970489;28;20500;-76
2022/02/12 12:42:14;;;;;;;1.60;1.27;;;8.90;81.30;;;;;;4958771;28;20589;-76
2022/02/12 12:44:42;;;;;;;1.60;1.27;;;8.80;80.70;;;;;;4961972;28;20949;-74
2022/02/12 12:47:10;;;;;;;2.60;2.07;;;8.60;79.60;;;;;;4946620;28;20604;-75
2022/02/12 12:49:39;;;;;;;1.60;1.20;;;8.50;80.80;;;;;;4964961;28;20892;-79
2022/02/12 12:52:08;;;;;;;1.60;1.20;;;8.60;81.60;;;;;;4949092;28;20567;-75
2022/02/12 12:54:36;;;;;;;1.60;1.33;;;8.70;82.10;;;;;;4958060;28;20853;-76
2022/02/12 12:57:06;;;;;;;1.70;1.57;;;8.80;80.20;;;;;;4950570;28;20482;-76
2022/02/12 12:59:34;;;;;;;1.60;1.20;;;8.80;79.80;;;;;;4956582;28;20472;-76
2022/02/12 13:02:04;;;;;;;1.60;1.30;;;8.80;81.40;;;;;;4954267;28;20491;-76
2022/02/12 13:04:37;;;;;;;1.60;1.10;;;9.00;80.30;;;;;;4961759;28;20484;-73
2022/02/12 13:07:05;;;;;;;1.60;1.20;;;8.90;80.00;;;;;;4961077;28;20512;-76
2022/02/12 13:09:33;;;;;;;1.60;1.30;;;8.90;80.90;;;;;;4963582;28;20474;-74
2022/02/12 13:12:26;;;;;;;1.70;1.60;;;8.80;80.60;;;;;;4959364;28;20511;-74
2022/02/12 13:14:54;;;;;;;1.53;1.10;;;8.80;80.90;;;;;;4966107;28;20466;-74